createdAt,value
2022-11-27T00:01:35.410Z,94.46
2022-11-27T00:04:02.959Z,94.73
2022-11-27T00:06:32.059Z,93.72
2022-11-27T00:09:02.341Z,94.80
2022-11-27T00:11:32.044Z,94.33
2022-11-27T00:14:00.143Z,95.29
2022-11-27T00:16:28.360Z,94.35
2022-11-27T00:18:55.455Z,94.61
2022-11-27T00:21:30.540Z,94.24
2022-11-27T00:24:02.287Z,94.66
2022-11-27T00:26:37.252Z,94.24
2022-11-27T00:29:05.636Z,95.08
2022-11-27T00:31:34.741Z,95.25
2022-11-27T00:34:07.091Z,95.54
2022-11-27T00:36:35.354Z,95.18
2022-11-27T00:39:03.448Z,95.27
2022-11-27T00:41:31.441Z,94.80
2022-11-27T00:43:59.187Z,95.11
2022-11-27T00:46:31.191Z,95.81
2022-11-27T00:49:00.464Z,95.21
2022-11-27T00:51:29.183Z,94.43
2022-11-27T00:53:57.104Z,95.53
2022-11-27T00:56:34.645Z,95.45
2022-11-27T00:59:02.422Z,95.42
2022-11-27T01:01:41.038Z,95.58
2022-11-27T01:04:14.792Z,94.63
2022-11-27T01:06:43.258Z,95.73
2022-11-27T01:09:13.506Z,95.80
2022-11-27T01:11:41.309Z,95.87
2022-11-27T01:14:18.271Z,95.66
2022-11-27T01:16:45.678Z,95.46
2022-11-27T01:19:15.246Z,95.46
2022-11-27T01:21:42.621Z,95.35
2022-11-27T01:24:13.450Z,94.73
2022-11-27T01:26:41.470Z,95.18
2022-11-27T01:29:08.760Z,96.37
2022-11-27T01:31:36.129Z,96.19
2022-11-27T01:34:16.982Z,95.68
2022-11-27T01:36:45.069Z,95.63
2022-11-27T01:39:20.599Z,95.62
2022-11-27T01:41:49.343Z,95.07
2022-11-27T01:44:25.434Z,94.67
2022-11-27T01:47:10.438Z,95.83
2022-11-27T01:49:52.946Z,95.72
2022-11-27T01:52:46.957Z,95.52
2022-11-27T01:55:29.313Z,95.48
2022-11-27T01:58:15.108Z,95.21
2022-11-27T02:00:42.358Z,95.71
2022-11-27T02:03:09.667Z,95.61
2022-11-27T02:05:36.934Z,96.11
2022-11-27T02:08:10.927Z,96.55
2022-11-27T02:11:23.387Z,95.09
2022-11-27T02:14:39.077Z,94.77
2022-11-27T02:17:38.893Z,95.36
2022-11-27T02:21:06.633Z,96.56
2022-11-27T02:24:36.150Z,96.78
2022-11-27T02:27:48.882Z,95.54
2022-11-27T02:30:16.887Z,95.87
2022-11-27T02:32:59.835Z,95.28
2022-11-27T02:36:09.446Z,94.76
2022-11-27T02:38:55.761Z,94.86
2022-11-27T02:41:54.127Z,95.23
2022-11-27T02:44:23.504Z,95.28
2022-11-27T02:46:50.737Z,95.58
2022-11-27T02:49:20.210Z,95.60
2022-11-27T02:51:56.405Z,95.55
2022-11-27T02:54:30.775Z,95.31
2022-11-27T02:57:03.621Z,94.96
2022-11-27T02:59:33.517Z,95.64
2022-11-27T03:02:19.933Z,96.33
2022-11-27T03:04:55.356Z,96.78
2022-11-27T03:07:51.409Z,96.89
2022-11-27T03:10:44.141Z,96.79
2022-11-27T03:13:11.678Z,96.43
2022-11-27T03:16:22.518Z,96.21
2022-11-27T03:19:53.256Z,95.67
2022-11-27T03:22:20.328Z,96.02
2022-11-27T03:24:49.740Z,96.36
2022-11-27T03:27:27.909Z,96.19
2022-11-27T03:30:02.298Z,95.93
2022-11-27T03:32:30.929Z,95.87
2022-11-27T03:34:58.431Z,96.05
2022-11-27T03:37:26.023Z,96.54
2022-11-27T03:39:53.404Z,95.89
2022-11-27T03:42:40.188Z,96.25
2022-11-27T03:45:38.679Z,96.80
2022-11-27T03:49:01.336Z,95.76
2022-11-27T03:51:52.053Z,94.92
2022-11-27T03:55:00.174Z,95.59
2022-11-27T03:58:02.955Z,95.56
2022-11-27T04:00:41.999Z,95.57
2022-11-27T04:03:13.169Z,96.06
2022-11-27T04:05:40.844Z,95.58
2022-11-27T04:08:07.820Z,95.38
2022-11-27T04:10:34.814Z,95.79
2022-11-27T04:13:01.799Z,95.31
2022-11-27T04:15:28.757Z,96.60
2022-11-27T04:17:55.731Z,96.11
2022-11-27T04:20:22.689Z,96.79
2022-11-27T04:22:49.714Z,96.40
2022-11-27T04:25:17.762Z,95.56
2022-11-27T04:27:44.783Z,96.21
2022-11-27T04:30:12.961Z,95.62
2022-11-27T04:32:40.307Z,95.82
2022-11-27T04:35:08.927Z,95.08
2022-11-27T04:37:36.459Z,95.22
2022-11-27T04:40:05.799Z,95.92
2022-11-27T04:42:32.817Z,94.94
2022-11-27T04:44:59.905Z,95.67
2022-11-27T04:47:27.563Z,95.97
2022-11-27T04:49:54.545Z,94.80
2022-11-27T04:52:21.520Z,96.19
2022-11-27T04:54:48.548Z,95.18
2022-11-27T04:57:15.548Z,95.01
2022-11-27T04:59:42.501Z,95.76
2022-11-27T05:02:09.469Z,96.57
2022-11-27T05:04:36.458Z,95.33
2022-11-27T05:07:03.416Z,95.98
2022-11-27T05:09:30.388Z,95.01
2022-11-27T05:11:57.400Z,95.08
2022-11-27T05:14:29.058Z,94.85
2022-11-27T05:16:59.122Z,95.58
2022-11-27T05:19:30.123Z,95.70
2022-11-27T05:21:58.074Z,95.54
2022-11-27T05:24:28.513Z,95.05
2022-11-27T05:26:56.795Z,96.22
2022-11-27T05:29:25.804Z,96.16
2022-11-27T05:31:53.183Z,95.94
2022-11-27T05:34:20.466Z,95.77
2022-11-27T05:36:47.455Z,95.21
2022-11-27T05:39:14.853Z,95.36
2022-11-27T05:41:43.366Z,95.70
2022-11-27T05:44:15.321Z,95.05
2022-11-27T05:46:45.953Z,95.44
2022-11-27T05:49:15.656Z,94.95
2022-11-27T05:51:50.383Z,94.84
2022-11-27T05:54:18.645Z,94.97
2022-11-27T05:56:45.657Z,94.65
2022-11-27T05:59:12.788Z,95.23
2022-11-27T06:01:40.088Z,95.00
2022-11-27T06:04:07.189Z,94.78
2022-11-27T06:06:34.189Z,95.00
2022-11-27T06:09:01.362Z,94.92
2022-11-27T06:11:28.358Z,95.15
2022-11-27T06:13:55.405Z,95.22
2022-11-27T06:16:24.262Z,95.60
2022-11-27T06:18:54.592Z,95.78
2022-11-27T06:21:24.312Z,95.78
2022-11-27T06:23:55.605Z,95.74
2022-11-27T06:26:31.201Z,96.01
2022-11-27T06:29:01.093Z,95.65
2022-11-27T06:31:32.225Z,95.68
2022-11-27T06:34:00.344Z,95.24
2022-11-27T06:36:37.505Z,95.81
2022-11-27T06:39:06.347Z,95.94
2022-11-27T06:41:33.660Z,95.60
2022-11-27T06:44:01.994Z,95.97
2022-11-27T06:46:30.209Z,95.93
2022-11-27T06:48:58.896Z,96.46
2022-11-27T06:51:30.147Z,96.82
2022-11-27T06:53:59.076Z,96.56
2022-11-27T06:56:29.552Z,96.24
2022-11-27T06:59:00.629Z,96.33
2022-11-27T07:01:30.807Z,96.67
2022-11-27T07:03:58.785Z,96.96
2022-11-27T07:06:28.210Z,96.40
2022-11-27T07:08:56.136Z,96.92
2022-11-27T07:11:28.108Z,96.83
2022-11-27T07:13:59.052Z,96.62
2022-11-27T07:16:29.186Z,96.96
2022-11-27T07:19:01.921Z,97.13
2022-11-27T07:21:29.211Z,96.72
2022-11-27T07:23:56.747Z,97.36
2022-11-27T07:26:28.425Z,97.03
2022-11-27T07:28:55.988Z,97.16
2022-11-27T07:31:28.225Z,96.73
2022-11-27T07:33:56.778Z,96.66
2022-11-27T07:36:28.747Z,96.56
2022-11-27T07:38:57.864Z,96.21
2022-11-27T07:41:28.062Z,96.54
2022-11-27T07:43:59.461Z,96.25
2022-11-27T07:46:26.739Z,96.92
2022-11-27T07:48:53.714Z,96.70
2022-11-27T07:51:22.457Z,97.08
2022-11-27T07:53:51.837Z,97.25
2022-11-27T07:56:19.794Z,96.71
2022-11-27T07:58:49.486Z,96.50
2022-11-27T08:01:19.485Z,96.93
2022-11-27T08:03:46.638Z,96.63
2022-11-27T08:06:21.214Z,96.67
2022-11-27T08:08:48.927Z,96.28
2022-11-27T08:11:27.313Z,96.14
2022-11-27T08:14:03.230Z,95.83
2022-11-27T08:16:32.149Z,95.87
2022-11-27T08:18:59.481Z,95.63
2022-11-27T08:21:28.961Z,95.48
2022-11-27T08:23:58.078Z,95.35
2022-11-27T08:26:27.738Z,94.97
2022-11-27T08:28:56.283Z,96.11
2022-11-27T08:31:24.906Z,95.68
2022-11-27T08:33:52.162Z,95.55
2022-11-27T08:36:19.220Z,95.54
2022-11-27T08:38:47.050Z,94.98
2022-11-27T08:41:14.153Z,94.72
2022-11-27T08:43:41.128Z,94.48
2022-11-27T08:46:08.666Z,93.88
2022-11-27T08:48:36.533Z,93.81
2022-11-27T08:51:15.112Z,93.55
2022-11-27T08:53:45.423Z,93.36
2022-11-27T08:56:21.997Z,93.52
2022-11-27T08:58:49.325Z,93.51
2022-11-27T09:01:19.771Z,94.11
2022-11-27T09:03:48.211Z,94.09
2022-11-27T09:06:21.714Z,93.13
2022-11-27T09:08:50.239Z,92.70
2022-11-27T09:11:20.812Z,93.25
2022-11-27T09:13:48.172Z,93.08
2022-11-27T09:16:21.769Z,92.84
2022-11-27T09:18:52.528Z,92.56
2022-11-27T09:21:23.055Z,92.86
2022-11-27T09:24:01.499Z,92.54
2022-11-27T09:26:29.641Z,92.15
2022-11-27T09:29:00.093Z,93.42
2022-11-27T09:31:27.718Z,92.36
2022-11-27T09:33:54.806Z,93.08
2022-11-27T09:36:26.036Z,93.09
2022-11-27T09:38:53.745Z,92.26
2022-11-27T09:41:53.468Z,92.89
2022-11-27T09:44:53.827Z,92.29
2022-11-27T09:47:41.633Z,91.62
2022-11-27T09:50:21.247Z,91.40
2022-11-27T09:53:30.580Z,90.81
2022-11-27T09:56:03.502Z,91.54
2022-11-27T09:58:45.442Z,90.56
2022-11-27T10:01:28.569Z,90.98
2022-11-27T10:04:02.585Z,90.46
2022-11-27T10:06:48.538Z,90.68
2022-11-27T10:09:45.608Z,90.83
2022-11-27T10:12:30.046Z,90.08
2022-11-27T10:15:43.248Z,91.46
2022-11-27T10:18:38.963Z,90.22
2022-11-27T10:21:50.595Z,90.50
2022-11-27T10:25:09.431Z,90.28
2022-11-27T10:27:50.632Z,90.55
2022-11-27T10:30:21.734Z,89.79
2022-11-27T10:32:56.301Z,89.20
2022-11-27T10:35:32.479Z,88.67
2022-11-27T10:38:22.258Z,89.50
2022-11-27T10:41:47.696Z,89.65
2022-11-27T10:44:56.914Z,88.30
2022-11-27T10:47:29.784Z,88.51
2022-11-27T10:50:00.767Z,88.47
2022-11-27T10:52:27.818Z,88.16
2022-11-27T10:55:04.544Z,85.91
2022-11-27T10:58:34.221Z,87.20
2022-11-27T11:01:13.593Z,87.63
2022-11-27T11:03:41.104Z,86.35
2022-11-27T11:06:22.970Z,85.52
2022-11-27T11:09:06.867Z,84.13
2022-11-27T11:11:33.906Z,85.67
2022-11-27T11:14:00.896Z,85.01
2022-11-27T11:16:35.141Z,85.16
2022-11-27T11:19:03.395Z,86.53
2022-11-27T11:21:42.452Z,85.48
2022-11-27T11:24:29.832Z,85.32
2022-11-27T11:27:29.736Z,83.79
2022-11-27T11:30:05.442Z,81.95
2022-11-27T11:32:37.995Z,83.45
2022-11-27T11:35:24.165Z,84.78
2022-11-27T11:37:54.937Z,85.47
2022-11-27T11:40:36.617Z,84.33
2022-11-27T11:43:26.541Z,84.51
2022-11-27T11:45:53.608Z,84.21
2022-11-27T11:48:28.035Z,84.06
2022-11-27T11:51:02.329Z,85.21
2022-11-27T11:53:45.510Z,83.12
2022-11-27T11:56:28.370Z,83.87
2022-11-27T11:59:02.907Z,83.54
2022-11-27T12:01:45.519Z,83.06
2022-11-27T12:04:49.703Z,81.43
2022-11-27T12:08:18.465Z,82.19
2022-11-27T12:11:24.467Z,81.74
2022-11-27T12:14:35.567Z,81.94
2022-11-27T12:17:35.406Z,81.17
2022-11-27T12:20:22.615Z,83.05
2022-11-27T12:23:17.244Z,81.79
2022-11-27T12:26:19.803Z,83.04
2022-11-27T12:29:27.339Z,83.18
2022-11-27T12:32:34.937Z,82.53
2022-11-27T12:35:51.839Z,83.12
2022-11-27T12:38:55.213Z,81.44
2022-11-27T12:41:41.031Z,80.98
2022-11-27T12:44:45.500Z,81.19
2022-11-27T12:47:40.109Z,81.92
2022-11-27T12:50:54.619Z,81.66
2022-11-27T12:53:45.349Z,81.61
2022-11-27T12:56:35.990Z,82.67
2022-11-27T12:59:35.001Z,82.14
2022-11-27T13:02:08.984Z,81.52
2022-11-27T13:04:51.869Z,80.53
2022-11-27T13:07:40.335Z,80.24
2022-11-27T13:10:35.841Z,80.71
2022-11-27T13:13:30.355Z,82.33
2022-11-27T13:16:35.982Z,82.75
2022-11-27T13:19:49.264Z,82.58
2022-11-27T13:22:30.955Z,82.10
2022-11-27T13:25:02.196Z,82.78
2022-11-27T13:27:35.368Z,82.72
2022-11-27T13:30:09.331Z,82.04
2022-11-27T13:33:01.705Z,82.23
2022-11-27T13:35:39.816Z,82.16
2022-11-27T13:38:24.851Z,81.46
2022-11-27T13:40:56.151Z,81.51
2022-11-27T13:43:32.388Z,81.58
2022-11-27T13:46:24.859Z,82.39
2022-11-27T13:49:05.425Z,83.07
2022-11-27T13:51:40.270Z,83.65
2022-11-27T13:54:21.321Z,84.39
2022-11-27T13:56:51.508Z,84.87
2022-11-27T13:59:27.499Z,85.06
2022-11-27T14:01:59.497Z,84.40
2022-11-27T14:04:33.446Z,85.67
2022-11-27T14:07:13.529Z,85.86
2022-11-27T14:09:56.381Z,87.08
2022-11-27T14:12:31.941Z,87.61
2022-11-27T14:15:18.225Z,87.41
2022-11-27T14:17:49.953Z,87.95
2022-11-27T14:20:17.087Z,87.95
2022-11-27T14:23:10.976Z,88.23
2022-11-27T14:25:39.770Z,88.26
2022-11-27T14:28:21.357Z,88.65
2022-11-27T14:30:59.411Z,88.73
2022-11-27T14:33:59.530Z,89.05
2022-11-27T14:36:34.307Z,88.89
2022-11-27T14:39:05.199Z,88.33
2022-11-27T14:41:35.100Z,88.12
2022-11-27T14:44:14.930Z,88.98
2022-11-27T14:46:42.196Z,88.87
2022-11-27T14:49:20.682Z,89.54
2022-11-27T14:51:55.405Z,89.70
2022-11-27T14:54:38.986Z,89.51
2022-11-27T14:57:10.993Z,89.93
2022-11-27T14:59:39.914Z,90.35
2022-11-27T15:02:07.404Z,89.95
2022-11-27T15:04:38.945Z,90.31
2022-11-27T15:07:29.379Z,90.20
2022-11-27T15:10:01.084Z,90.26
2022-11-27T15:12:39.274Z,90.56
2022-11-27T15:15:34.707Z,90.62
2022-11-27T15:18:10.564Z,90.89
2022-11-27T15:20:50.020Z,90.50
2022-11-27T15:23:34.480Z,90.79
2022-11-27T15:26:18.852Z,91.19
2022-11-27T15:28:57.253Z,91.22
2022-11-27T15:31:38.278Z,91.57
2022-11-27T15:34:24.394Z,91.65
2022-11-27T15:37:06.783Z,91.77
2022-11-27T15:39:48.756Z,91.90
2022-11-27T15:42:17.788Z,91.85
2022-11-27T15:44:46.556Z,91.47
2022-11-27T15:47:37.598Z,92.00
2022-11-27T15:50:23.270Z,92.56
2022-11-27T15:52:50.833Z,92.05
2022-11-27T15:55:18.726Z,91.93
2022-11-27T15:57:48.797Z,92.13
2022-11-27T16:00:25.039Z,91.83
2022-11-27T16:02:53.921Z,92.38
2022-11-27T16:05:21.694Z,92.09
2022-11-27T16:07:53.549Z,92.66
2022-11-27T16:10:22.464Z,92.25
2022-11-27T16:12:49.438Z,92.50
2022-11-27T16:15:16.637Z,92.26
2022-11-27T16:17:43.604Z,92.30
2022-11-27T16:20:11.204Z,92.36
2022-11-27T16:22:38.242Z,92.76
2022-11-27T16:25:05.990Z,92.49
2022-11-27T16:27:33.319Z,92.01
2022-11-27T16:30:00.695Z,92.27
2022-11-27T16:32:27.813Z,92.09
2022-11-27T16:34:55.035Z,92.18
2022-11-27T16:37:22.212Z,91.99
2022-11-27T16:39:49.341Z,91.29
2022-11-27T16:42:16.503Z,92.93
2022-11-27T16:44:44.421Z,92.31
2022-11-27T16:47:12.135Z,92.46
2022-11-27T16:49:39.139Z,92.54
2022-11-27T16:52:06.262Z,92.83
2022-11-27T16:54:33.234Z,92.98
2022-11-27T16:57:00.629Z,93.42
2022-11-27T16:59:27.887Z,93.41
2022-11-27T17:01:55.087Z,92.95
2022-11-27T17:04:22.347Z,92.85
2022-11-27T17:06:50.259Z,92.36
2022-11-27T17:09:17.879Z,93.28
2022-11-27T17:11:50.840Z,92.56
2022-11-27T17:14:19.555Z,92.90
2022-11-27T17:16:47.391Z,92.85
2022-11-27T17:19:15.826Z,93.57
2022-11-27T17:21:44.847Z,93.41
2022-11-27T17:24:16.209Z,93.31
2022-11-27T17:26:46.239Z,93.12
2022-11-27T17:29:19.355Z,93.46
2022-11-27T17:31:46.815Z,93.40
2022-11-27T17:34:17.006Z,93.84
2022-11-27T17:36:45.681Z,94.24
2022-11-27T17:39:15.001Z,94.54
2022-11-27T17:41:44.795Z,94.52
2022-11-27T17:44:13.200Z,94.34
2022-11-27T17:46:40.601Z,94.51
2022-11-27T17:49:08.477Z,93.92
2022-11-27T17:51:36.985Z,94.07
2022-11-27T17:54:05.531Z,93.83
2022-11-27T17:56:34.357Z,93.94
2022-11-27T17:59:01.697Z,94.21
2022-11-27T18:01:30.627Z,94.68
2022-11-27T18:04:03.534Z,94.62
2022-11-27T18:06:32.368Z,94.21
2022-11-27T18:08:59.566Z,94.77
2022-11-27T18:11:32.614Z,94.84
2022-11-27T18:13:59.886Z,95.06
2022-11-27T18:16:33.533Z,95.75
2022-11-27T18:19:07.410Z,95.92
2022-11-27T18:21:36.924Z,95.55
2022-11-27T18:24:23.505Z,96.19
2022-11-27T18:29:42.283Z,96.46
2022-11-27T18:32:11.374Z,96.30
2022-11-27T18:34:38.830Z,96.61
2022-11-27T18:37:07.278Z,95.95
2022-11-27T18:39:35.859Z,96.63
2022-11-27T18:42:04.947Z,95.84
2022-11-27T18:44:33.276Z,95.15
2022-11-27T18:47:00.556Z,95.90
2022-11-27T18:49:27.758Z,95.13
2022-11-27T18:51:54.919Z,95.80
2022-11-27T18:54:22.310Z,95.88
2022-11-27T18:56:49.362Z,95.25
2022-11-27T18:59:16.680Z,95.44
2022-11-27T19:01:43.801Z,95.12
2022-11-27T19:04:12.210Z,95.33
2022-11-27T19:06:42.166Z,95.49
2022-11-27T19:09:14.084Z,95.75
2022-11-27T19:11:42.328Z,95.71
2022-11-27T19:14:10.548Z,95.26
2022-11-27T19:16:46.017Z,95.58
2022-11-27T19:22:08.189Z,95.26
2022-11-27T19:24:35.612Z,94.76
2022-11-27T19:27:03.046Z,94.62
2022-11-27T19:29:30.103Z,95.23
2022-11-27T19:31:58.778Z,95.28
2022-11-27T19:34:25.979Z,94.31
2022-11-27T19:36:53.078Z,95.05
2022-11-27T19:39:20.201Z,95.27
2022-11-27T19:41:47.277Z,95.36
2022-11-27T19:44:14.332Z,95.97
2022-11-27T19:46:41.595Z,95.43
2022-11-27T19:49:17.630Z,94.88
2022-11-27T19:51:46.091Z,95.80
2022-11-27T19:54:15.533Z,95.35
2022-11-27T19:56:43.406Z,95.87
2022-11-27T19:59:12.460Z,95.31
2022-11-27T20:01:40.516Z,95.16
2022-11-27T20:04:11.450Z,95.76
2022-11-27T20:06:38.889Z,95.98
2022-11-27T20:09:07.128Z,95.46
2022-11-27T20:11:38.047Z,96.11
2022-11-27T20:14:06.863Z,95.72
2022-11-27T20:16:36.118Z,95.00
2022-11-27T20:19:05.995Z,94.84
2022-11-27T20:21:33.497Z,94.95
2022-11-27T20:24:02.176Z,94.77
2022-11-27T20:26:38.499Z,95.16
2022-11-27T20:29:09.841Z,95.14
2022-11-27T20:31:39.391Z,95.54
2022-11-27T20:34:09.167Z,94.59
2022-11-27T20:36:40.529Z,94.81
2022-11-27T20:39:07.682Z,94.83
2022-11-27T20:41:34.727Z,94.53
2022-11-27T20:44:04.600Z,93.95
2022-11-27T20:46:33.500Z,94.82
2022-11-27T20:49:01.391Z,94.57
2022-11-27T20:51:33.910Z,94.40
2022-11-27T20:54:05.165Z,94.75
2022-11-27T20:56:32.750Z,94.88
2022-11-27T20:59:00.087Z,94.85
2022-11-27T21:01:35.390Z,95.03
2022-11-27T21:04:09.736Z,94.56
2022-11-27T21:06:43.528Z,95.27
2022-11-27T21:09:13.612Z,94.89
2022-11-27T21:11:42.188Z,95.16
2022-11-27T21:14:13.287Z,94.47
2022-11-27T21:16:49.054Z,94.57
2022-11-27T21:19:25.988Z,94.59
2022-11-27T21:21:54.588Z,94.90
2022-11-27T21:24:25.655Z,94.79
2022-11-27T21:26:52.798Z,95.19
2022-11-27T21:29:25.149Z,94.93
2022-11-27T21:31:52.959Z,94.82
2022-11-27T21:34:20.011Z,95.63
2022-11-27T21:36:47.043Z,95.43
2022-11-27T21:39:21.978Z,94.80
2022-11-27T21:41:53.390Z,94.90
2022-11-27T21:44:22.250Z,94.86
2022-11-27T21:46:50.379Z,94.97
2022-11-27T21:49:20.025Z,94.81
2022-11-27T21:51:52.248Z,94.43
2022-11-27T21:54:20.055Z,94.12
2022-11-27T21:56:49.918Z,94.28
2022-11-27T21:59:17.195Z,94.82
2022-11-27T22:01:46.195Z,94.91
2022-11-27T22:04:13.697Z,94.50
2022-11-27T22:06:45.233Z,94.76
2022-11-27T22:09:15.627Z,94.96
2022-11-27T22:11:45.155Z,94.95
2022-11-27T22:14:14.846Z,94.40
2022-11-27T22:16:45.651Z,94.35
2022-11-27T22:19:14.445Z,94.28
2022-11-27T22:21:42.017Z,93.77
2022-11-27T22:24:15.084Z,94.10
2022-11-27T22:26:45.883Z,94.38
2022-11-27T22:29:12.935Z,94.56
2022-11-27T22:31:39.916Z,94.03
2022-11-27T22:34:06.924Z,93.53
2022-11-27T22:36:36.295Z,93.47
2022-11-27T22:39:08.146Z,94.30
2022-11-27T22:41:38.243Z,94.23
2022-11-27T22:44:20.966Z,93.95
2022-11-27T22:46:48.404Z,94.06
2022-11-27T22:49:18.449Z,94.19
2022-11-27T22:51:46.663Z,94.66
2022-11-27T22:54:16.936Z,94.33
2022-11-27T22:56:45.616Z,94.81
2022-11-27T23:02:00.875Z,94.99
2022-11-27T23:04:28.123Z,94.46
2022-11-27T23:06:55.170Z,94.66
2022-11-27T23:09:22.275Z,94.69
2022-11-27T23:11:49.512Z,94.80
2022-11-27T23:14:17.076Z,95.05
2022-11-27T23:16:44.296Z,94.68
2022-11-27T23:19:14.959Z,95.54
2022-11-27T23:21:42.402Z,95.75
2022-11-27T23:24:15.181Z,95.27
2022-11-27T23:26:43.610Z,95.34
2022-11-27T23:29:10.734Z,95.29
2022-11-27T23:31:39.577Z,95.26
2022-11-27T23:34:13.436Z,95.24
2022-11-27T23:36:40.911Z,94.74
2022-11-27T23:39:10.964Z,95.46
2022-11-27T23:41:39.554Z,94.49
2022-11-27T23:44:06.972Z,95.39
2022-11-27T23:46:34.014Z,95.58
2022-11-27T23:49:01.086Z,95.62
2022-11-27T23:51:32.317Z,95.50
2022-11-27T23:54:00.867Z,95.06
2022-11-27T23:56:31.975Z,95.16
2022-11-27T23:59:00.528Z,94.98
